Time;durP1;ratioP1;P1;durP2;ratioP2;P2;SDS_P1;SDS_P2;PMS_P1;PMS_P2;Temp;Humidity;BMP_temperature;BMP_pressure;BME280_temperature;BME280_humidity;BME280_pressure;Samples;Min_cycle;Max_cycle;Signal;HPM_P1;HPM_P2
2022/09/04 00:00:32;;;;;;;5.88;4.70;;;20.40;79.40;;;;;;5033479;28;20028;-66
2022/09/04 00:03:22;;;;;;;5.60;5.05;;;20.30;79.40;;;;;;5033415;28;20029;-66
2022/09/04 00:05:52;;;;;;;7.03;5.50;;;20.30;79.20;;;;;;5033409;28;20025;-66
2022/09/04 00:08:30;;;;;;;6.85;5.72;;;20.30;79.50;;;;;;5033343;28;20025;-67
2022/09/04 00:11:31;;;;;;;7.97;5.13;;;20.20;79.40;;;;;;5033237;28;20022;-67
2022/09/04 00:14:17;;;;;;;5.07;4.53;;;20.20;79.20;;;;;;5031416;28;20067;-68
2022/09/04 00:16:53;;;;;;;6.57;4.82;;;20.20;79.10;;;;;;5033520;28;20136;-67
2022/09/04 00:19:36;;;;;;;8.13;4.90;;;20.20;78.90;;;;;;5031557;28;20060;-66
2022/09/04 00:22:29;;;;;;;5.70;5.07;;;20.10;78.60;;;;;;5033116;28;20068;-66
2022/09/04 00:25:12;;;;;;;5.68;4.72;;;20.10;78.50;;;;;;5033016;28;20032;-67
2022/09/04 00:27:44;;;;;;;8.25;5.20;;;20.00;78.00;;;;;;5033182;28;20018;-66
2022/09/04 00:30:19;;;;;;;6.47;4.88;;;20.00;77.80;;;;;;5033228;28;20018;-66
2022/09/04 00:32:50;;;;;;;5.78;4.78;;;19.90;77.70;;;;;;5031591;28;20025;-67
2022/09/04 00:35:37;;;;;;;6.05;5.40;;;19.80;77.60;;;;;;5034077;28;20032;-67
2022/09/04 00:38:06;;;;;;;5.95;5.13;;;19.80;77.50;;;;;;5031259;28;20022;-67
2022/09/04 00:40:34;;;;;;;7.03;6.22;;;19.70;77.50;;;;;;5033841;28;20017;-66
2022/09/04 00:43:21;;;;;;;8.70;7.25;;;19.60;77.50;;;;;;5033239;28;20105;-67
2022/09/04 00:46:28;;;;;;;9.95;7.45;;;19.60;77.80;;;;;;5032510;28;20152;-67
2022/09/04 00:49:12;;;;;;;10.35;7.50;;;19.50;77.90;;;;;;5033519;28;20017;-67
2022/09/04 00:51:55;;;;;;;14.63;8.57;;;19.50;78.00;;;;;;5031129;28;20092;-67
2022/09/04 00:54:36;;;;;;;7.95;7.07;;;19.40;77.80;;;;;;5031542;28;20470;-67
2022/09/04 00:57:43;;;;;;;10.93;9.20;;;19.40;77.80;;;;;;5033408;28;20379;-66
2022/09/04 01:00:15;;;;;;;7.80;6.15;;;19.30;77.80;;;;;;5033372;28;20435;-66
2022/09/04 01:02:59;;;;;;;11.18;8.57;;;19.30;77.70;;;;;;5031337;28;20104;-66
2022/09/04 01:05:44;;;;;;;;;;;19.20;77.70;;;;;;5031734;28;20029;-66
2022/09/04 01:08:26;;;;;;;8.07;7.00;;;19.20;77.60;;;;;;5032872;28;20363;-66
2022/09/04 01:11:03;;;;;;;7.55;6.78;;;19.20;77.40;;;;;;5033308;28;20037;-67
2022/09/04 01:13:49;;;;;;;8.82;7.38;;;19.10;77.40;;;;;;5033474;28;20463;-67
2022/09/04 01:16:32;;;;;;;9.05;8.15;;;19.00;77.50;;;;;;5033427;28;20104;-67
2022/09/04 01:19:07;;;;;;;10.32;9.23;;;19.00;77.60;;;;;;5033393;28;20029;-67
2022/09/04 01:21:49;;;;;;;17.75;10.75;;;18.90;77.60;;;;;;5033119;28;20030;-67
2022/09/04 01:24:29;;;;;;;11.85;9.65;;;18.90;77.90;;;;;;5033272;28;20433;-66
2022/09/04 01:27:02;;;;;;;17.05;10.25;;;18.90;78.10;;;;;;5033290;28;20108;-67
2022/09/04 01:29:49;;;;;;;10.00;8.97;;;18.90;78.30;;;;;;5033193;28;20101;-68
2022/09/04 01:32:40;;;;;;;9.88;8.73;;;18.80;78.20;;;;;;5033167;28;20056;-67
2022/09/04 01:35:43;;;;;;;9.05;7.82;;;18.80;78.10;;;;;;5033441;28;20031;-67
2022/09/04 01:38:26;;;;;;;8.27;7.40;;;18.80;78.00;;;;;;5053087;28;20386;-67
2022/09/04 01:41:06;;;;;;;10.93;8.90;;;18.80;78.00;;;;;;5053195;28;20025;-67
2022/09/04 01:43:33;;;;;;;9.57;8.20;;;18.70;78.00;;;;;;5053111;28;20029;-67
2022/09/04 01:46:14;;;;;;;12.25;9.32;;;18.70;77.90;;;;;;5052964;28;20020;-68
2022/09/04 01:48:48;;;;;;;16.00;9.93;;;18.70;78.00;;;;;;5053041;28;20517;-67
2022/09/04 01:51:44;;;;;;;15.48;10.07;;;18.60;78.10;;;;;;5038317;28;20450;-66
2022/09/04 01:54:36;;;;;;;10.95;8.70;;;18.60;78.30;;;;;;5018842;28;20053;-67
2022/09/04 01:57:08;;;;;;;14.60;10.10;;;18.60;78.50;;;;;;5033139;28;20166;-68
2022/09/04 02:00:00;;;;;;;15.65;11.13;;;18.60;78.60;;;;;;5033100;28;20122;-67
2022/09/04 02:02:54;;;;;;;14.70;11.05;;;18.60;78.90;;;;;;5032953;28;20524;-67
2022/09/04 02:05:41;;;;;;;13.35;10.15;;;18.60;79.10;;;;;;4998647;28;20489;-67
2022/09/04 02:08:32;;;;;;;57.58;11.70;;;18.60;79.30;;;;;;5052882;28;20429;-67
2022/09/04 02:11:30;;;;;;;20.88;10.50;;;18.60;79.50;;;;;;5052741;28;20025;-67
2022/09/04 02:14:08;;;;;;;18.98;10.65;;;18.60;79.70;;;;;;5052711;28;20033;-67
2022/09/04 02:16:44;;;;;;;11.98;9.57;;;18.60;79.70;;;;;;5052501;28;20029;-67
2022/09/04 02:19:33;;;;;;;7.13;6.22;;;18.60;79.50;;;;;;5034551;28;20025;-67
2022/09/04 02:22:23;;;;;;;8.77;7.28;;;18.60;79.30;;;;;;5043858;28;20128;-66
2022/09/04 02:25:00;;;;;;;8.32;7.43;;;18.60;78.80;;;;;;5052512;28;20100;-67
2022/09/04 02:28:11;;;;;;;14.50;11.18;;;18.60;78.50;;;;;;5052325;28;20021;-66
2022/09/04 02:31:07;;;;;;;12.63;9.60;;;18.50;78.50;;;;;;5028843;28;20033;-67
2022/09/04 02:33:51;;;;;;;11.35;9.13;;;18.50;78.70;;;;;;5052548;28;20021;-67
2022/09/04 02:36:33;;;;;;;13.35;10.38;;;18.50;78.70;;;;;;5039649;28;20044;-65
2022/09/04 02:39:17;;;;;;;12.35;10.10;;;18.50;78.90;;;;;;5032488;28;20049;-67
2022/09/04 02:42:11;;;;;;;23.95;11.25;;;18.50;79.30;;;;;;5032551;28;20030;-66
2022/09/04 02:45:03;;;;;;;28.98;10.80;;;18.50;79.60;;;;;;5032492;28;20474;-67
2022/09/04 02:47:56;;;;;;;23.30;11.50;;;18.50;79.80;;;;;;5032476;28;20056;-67
2022/09/04 02:50:56;;;;;;;15.30;10.90;;;18.60;80.00;;;;;;5032234;28;20072;-67
2022/09/04 02:54:01;;;;;;;13.43;9.00;;;18.60;80.00;;;;;;5032437;28;20379;-67
2022/09/04 02:56:38;;;;;;;;;;;18.70;80.00;;;;;;5032943;28;20482;-67
2022/09/04 02:59:34;;;;;;;17.50;11.55;;;18.80;79.70;;;;;;5032458;28;19951;-67
2022/09/04 03:02:07;;;;;;;25.23;12.68;;;18.80;79.90;;;;;;5032400;28;20116;-67
2022/09/04 03:04:36;;;;;;;21.38;12.70;;;18.90;79.90;;;;;;5032351;28;20026;-67
2022/09/04 03:07:19;;;;;;;33.15;13.82;;;18.90;80.10;;;;;;5034373;28;20025;-66
2022/09/04 03:09:54;;;;;;;22.33;12.67;;;18.90;79.90;;;;;;5036094;28;20096;-67
2022/09/04 03:12:49;;;;;;;39.38;11.95;;;19.00;80.00;;;;;;5036049;28;20161;-66
2022/09/04 03:15:23;;;;;;;;;;;19.00;79.90;;;;;;5036364;28;20029;-66
2022/09/04 03:18:21;;;;;;;32.13;11.55;;;19.10;79.50;;;;;;5036004;28;19905;-67
2022/09/04 03:21:00;;;;;;;14.85;10.45;;;19.10;79.50;;;;;;5035948;28;20584;-66
2022/09/04 03:24:02;;;;;;;13.15;10.77;;;19.10;79.30;;;;;;5035785;28;20056;-66
2022/09/04 03:26:40;;;;;;;11.45;9.32;;;19.10;79.20;;;;;;5035783;28;20506;-66
2022/09/04 03:29:41;;;;;;;15.80;9.60;;;19.20;79.30;;;;;;5035831;28;20014;-66
2022/09/04 03:32:28;;;;;;;12.75;9.65;;;19.20;79.50;;;;;;5032533;28;20037;-66
2022/09/04 03:35:03;;;;;;;14.93;9.75;;;19.20;79.40;;;;;;5035389;28;20034;-67
2022/09/04 03:37:50;;;;;;;9.27;7.45;;;19.30;79.40;;;;;;5055117;28;20029;-66
2022/09/04 03:40:36;;;;;;;9.15;7.05;;;19.30;79.30;;;;;;5055455;28;20052;-67
2022/09/04 03:43:39;;;;;;;7.13;5.15;;;19.30;79.10;;;;;;5055443;28;20109;-67
2022/09/04 03:46:19;;;;;;;6.32;5.30;;;19.30;78.80;;;;;;5053868;28;20151;-66
2022/09/04 03:49:08;;;;;;;7.03;5.60;;;19.40;79.00;;;;;;5037990;28;20071;-66
2022/09/04 03:51:52;;;;;;;7.20;5.03;;;19.40;78.80;;;;;;5035223;28;20029;-67
2022/09/04 03:54:31;;;;;;;;;;;19.40;78.30;;;;;;5035571;28;20022;-66
2022/09/04 03:57:07;;;;;;;22.90;16.80;;;19.40;78.20;;;;;;5035090;28;19905;-66
2022/09/04 03:59:42;;;;;;;17.77;13.07;;;19.40;78.30;;;;;;5034970;28;20101;-66
2022/09/04 04:02:27;;;;;;;10.70;7.55;;;19.40;78.50;;;;;;5034937;28;20032;-66
2022/09/04 04:05:04;;;;;;;9.77;6.82;;;19.40;78.50;;;;;;5034575;28;20022;-66
2022/09/04 04:07:48;;;;;;;8.45;5.88;;;19.50;78.60;;;;;;5015068;28;20391;-66
2022/09/04 04:10:23;;;;;;;8.05;6.38;;;19.50;78.50;;;;;;5014935;28;20022;-66
2022/09/04 04:13:10;;;;;;;9.68;6.13;;;19.50;78.60;;;;;;5014939;28;20026;-66
2022/09/04 04:15:49;;;;;;;10.05;6.15;;;19.50;78.60;;;;;;5014868;28;20443;-66
2022/09/04 04:18:26;;;;;;;12.07;7.05;;;19.50;78.60;;;;;;5014735;28;20109;-66
2022/09/04 04:21:29;;;;;;;7.38;6.10;;;19.60;78.70;;;;;;5014815;28;20428;-66
2022/09/04 04:24:04;;;;;;;12.25;7.50;;;19.50;78.60;;;;;;5014756;28;20042;-66
2022/09/04 04:27:01;;;;;;;8.57;6.82;;;19.60;78.60;;;;;;5014578;28;20037;-66
2022/09/04 04:29:44;;;;;;;10.15;6.47;;;19.60;78.50;;;;;;5014665;28;20026;-67
2022/09/04 04:32:23;;;;;;;7.38;5.47;;;19.60;78.70;;;;;;5014668;28;20018;-66
2022/09/04 04:35:07;;;;;;;10.48;7.13;;;19.60;78.50;;;;;;5013323;28;20048;-66
2022/09/04 04:38:10;;;;;;;8.23;5.95;;;19.70;78.10;;;;;;4996927;28;21416;-66
2022/09/04 04:40:58;;;;;;;9.73;6.57;;;19.70;77.90;;;;;;5014525;28;20026;-66
2022/09/04 04:43:55;;;;;;;9.05;6.10;;;19.70;77.90;;;;;;5014517;28;20025;-66
2022/09/04 04:47:00;;;;;;;8.55;6.18;;;19.70;77.80;;;;;;5023159;28;20507;-66
2022/09/04 04:49:56;;;;;;;7.57;5.20;;;19.70;77.70;;;;;;5032915;28;20057;-66
2022/09/04 04:52:47;;;;;;;7.25;5.80;;;19.70;78.00;;;;;;5034132;28;20528;-66
2022/09/04 04:55:48;;;;;;;8.63;6.03;;;19.70;78.10;;;;;;5034034;28;20113;-66
2022/09/04 04:58:35;;;;;;;9.40;6.40;;;19.70;78.00;;;;;;5009322;28;20048;-67
2022/09/04 05:01:22;;;;;;;8.20;5.95;;;19.80;78.30;;;;;;5032708;28;20033;-67
2022/09/04 05:04:01;;;;;;;10.75;6.90;;;19.80;78.00;;;;;;5033882;28;20028;-66
2022/09/04 05:06:35;;;;;;;9.77;7.10;;;19.80;77.60;;;;;;5045514;28;20064;-66
2022/09/04 05:09:12;;;;;;;9.07;6.47;;;19.80;77.10;;;;;;5035854;28;20171;-67
2022/09/04 05:12:05;;;;;;;9.60;6.47;;;19.80;77.20;;;;;;5053714;28;20025;-66
2022/09/04 05:15:02;;;;;;;8.32;6.55;;;19.80;77.50;;;;;;5053598;28;20025;-67
2022/09/04 05:17:53;;;;;;;8.80;6.50;;;19.90;77.70;;;;;;5053570;28;20071;-67
2022/09/04 05:20:27;;;;;;;9.25;6.68;;;19.90;78.00;;;;;;5053579;28;20025;-66
2022/09/04 05:23:16;;;;;;;7.68;5.93;;;19.90;78.10;;;;;;5053327;28;20052;-66
2022/09/04 05:26:20;;;;;;;8.40;5.72;;;19.90;78.20;;;;;;5053320;28;20108;-67
2022/09/04 05:29:08;;;;;;;8.65;6.80;;;20.00;78.10;;;;;;5053471;28;20474;-67
2022/09/04 05:31:51;;;;;;;9.65;6.55;;;20.00;78.00;;;;;;5039357;28;20045;-67
2022/09/04 05:34:16;;;;;;;9.65;6.75;;;20.00;78.20;;;;;;5032139;28;20021;-66
2022/09/04 05:36:56;;;;;;;9.98;7.60;;;20.10;78.20;;;;;;5032208;28;20042;-66
2022/09/04 05:39:45;;;;;;;8.75;6.93;;;20.10;77.90;;;;;;5030926;28;20034;-66
2022/09/04 05:42:32;;;;;;;9.98;7.28;;;20.10;77.70;;;;;;5003822;28;20037;-66
2022/09/04 05:45:22;;;;;;;11.48;7.97;;;20.20;78.00;;;;;;5030265;28;20022;-66
2022/09/04 05:48:09;;;;;;;13.30;9.95;;;20.20;78.00;;;;;;5031653;28;20021;-66
2022/09/04 05:50:56;;;;;;;11.93;8.38;;;20.20;77.30;;;;;;5029891;28;20021;-66
2022/09/04 05:54:01;;;;;;;13.68;9.10;;;20.20;77.40;;;;;;5030893;28;20018;-66
2022/09/04 05:56:59;;;;;;;12.98;8.88;;;20.30;77.70;;;;;;5003472;28;20029;-67
2022/09/04 05:59:49;;;;;;;15.10;8.50;;;20.40;77.80;;;;;;4992837;28;20029;-66
2022/09/04 06:02:48;;;;;;;13.32;8.25;;;20.40;77.60;;;;;;5033119;28;20387;-66
2022/09/04 06:05:28;;;;;;;13.60;8.55;;;20.50;77.50;;;;;;5033146;28;20100;-66
2022/09/04 06:07:59;;;;;;;15.02;9.85;;;20.50;77.80;;;;;;5015322;28;20022;-66
2022/09/04 06:10:46;;;;;;;14.70;9.32;;;20.60;77.90;;;;;;5033053;28;20452;-66
2022/09/04 06:13:59;;;;;;;12.57;8.80;;;20.60;77.20;;;;;;5033001;28;20021;-66
2022/09/04 06:16:37;;;;;;;15.55;8.63;;;20.70;77.70;;;;;;4972015;28;20574;-67
2022/09/04 06:19:23;;;;;;;16.63;8.80;;;20.70;77.80;;;;;;4972102;28;20472;-67
2022/09/04 06:22:16;;;;;;;15.50;10.20;;;20.80;77.70;;;;;;4971881;28;20485;-67
2022/09/04 06:25:00;;;;;;;14.55;9.75;;;20.80;77.10;;;;;;4972005;28;20050;-67
2022/09/04 06:27:44;;;;;;;;;;;20.90;76.60;;;;;;4972471;28;20035;-67
2022/09/04 06:30:12;;;;;;;14.83;9.60;;;20.90;77.10;;;;;;4971983;28;19913;-66
2022/09/04 06:33:05;;;;;;;16.95;9.98;;;21.00;78.10;;;;;;4971896;28;20031;-66
2022/09/04 06:35:31;;;;;;;18.48;11.43;;;21.10;77.60;;;;;;4971637;28;20033;-66
2022/09/04 06:38:27;;;;;;;22.55;13.32;;;21.30;78.30;;;;;;4971831;28;20038;-66
2022/09/04 06:41:25;;;;;;;21.48;12.75;;;21.40;77.30;;;;;;4971939;28;20039;-66
2022/09/04 06:44:25;;;;;;;25.08;13.68;;;21.40;76.90;;;;;;4924823;28;20499;-66
2022/09/04 06:47:09;;;;;;;25.83;13.63;;;21.50;75.80;;;;;;4990594;28;20092;-66
2022/09/04 06:50:01;;;;;;;21.38;13.10;;;21.50;75.30;;;;;;5016864;28;20022;-68
2022/09/04 06:52:44;;;;;;;20.02;12.27;;;21.60;75.40;;;;;;5012858;28;20038;-67
2022/09/04 06:55:23;;;;;;;21.07;11.87;;;21.60;74.70;;;;;;5016725;28;20072;-67
2022/09/04 06:58:38;;;;;;;20.88;12.20;;;21.60;74.00;;;;;;5016681;28;20030;-67
2022/09/04 07:01:28;;;;;;;18.00;11.23;;;21.60;73.80;;;;;;5016629;28;20030;-67
2022/09/04 07:04:17;;;;;;;15.77;10.23;;;21.60;73.60;;;;;;5016533;28;20022;-67
2022/09/04 07:06:58;;;;;;;24.67;12.43;;;21.60;74.40;;;;;;5041850;28;20108;-67
2022/09/04 07:09:40;;;;;;;20.02;12.02;;;21.60;73.80;;;;;;5038330;28;20017;-67
2022/09/04 07:12:09;;;;;;;16.20;11.07;;;21.60;73.60;;;;;;5056110;28;20028;-67
2022/09/04 07:15:16;;;;;;;19.63;11.50;;;21.50;73.60;;;;;;5056038;28;20025;-68
2022/09/04 07:18:07;;;;;;;19.30;10.68;;;21.50;73.10;;;;;;5009745;28;20397;-67
2022/09/04 07:21:23;;;;;;;15.10;10.48;;;21.50;73.30;;;;;;5055819;28;20047;-67
2022/09/04 07:23:51;;;;;;;14.82;9.85;;;21.40;73.40;;;;;;5005900;28;20052;-67
2022/09/04 07:26:35;;;;;;;14.40;10.88;;;21.40;73.50;;;;;;5035449;28;20065;-67
2022/09/04 07:29:40;;;;;;;18.10;11.35;;;21.40;73.00;;;;;;5034292;28;20151;-67
2022/09/04 07:32:29;;;;;;;16.42;10.15;;;21.40;73.50;;;;;;5033447;28;20022;-67
2022/09/04 07:35:09;;;;;;;13.30;9.13;;;21.40;73.90;;;;;;5019400;28;20037;-67
2022/09/04 07:37:57;;;;;;;14.77;10.05;;;21.50;73.80;;;;;;5031956;28;20108;-67
2022/09/04 07:40:31;;;;;;;13.30;9.63;;;21.50;73.90;;;;;;5032651;28;20022;-66
2022/09/04 07:43:12;;;;;;;14.13;10.63;;;21.60;73.80;;;;;;5033988;28;20033;-66
2022/09/04 07:45:54;;;;;;;14.50;9.75;;;21.70;73.80;;;;;;5032640;28;20021;-67
2022/09/04 07:48:27;;;;;;;12.77;8.88;;;21.80;73.40;;;;;;5032967;28;20352;-67
2022/09/04 07:51:09;;;;;;;12.23;9.15;;;21.90;73.80;;;;;;5031836;28;20109;-66
2022/09/04 07:54:14;;;;;;;12.68;8.77;;;22.00;73.60;;;;;;5033401;28;20021;-68
2022/09/04 07:56:48;;;;;;;;;;;22.10;72.90;;;;;;5032036;28;20167;-66
2022/09/04 07:59:35;;;;;;;11.18;7.95;;;22.20;73.40;;;;;;5031825;28;19968;-68
2022/09/04 08:02:04;;;;;;;9.85;7.28;;;22.30;71.90;;;;;;5032683;28;20109;-67
2022/09/04 08:05:09;;;;;;;10.55;7.30;;;22.40;72.80;;;;;;5033682;28;20022;-68
2022/09/04 08:07:38;;;;;;;11.48;7.50;;;22.50;72.90;;;;;;5033193;28;20459;-66
2022/09/04 08:10:15;;;;;;;8.55;6.55;;;22.70;72.30;;;;;;5030947;28;20021;-67
2022/09/04 08:12:55;;;;;;;8.85;6.88;;;22.90;72.20;;;;;;5033513;28;20018;-68
2022/09/04 08:15:49;;;;;;;9.70;7.20;;;23.10;71.90;;;;;;5033593;28;20182;-66
2022/09/04 08:18:34;;;;;;;7.97;6.03;;;23.30;71.40;;;;;;5020343;28;20034;-67
2022/09/04 08:21:24;;;;;;;8.07;6.35;;;23.40;71.00;;;;;;5033065;28;20161;-67
2022/09/04 08:24:17;;;;;;;9.00;6.15;;;23.50;70.00;;;;;;5031507;28;20499;-66
2022/09/04 08:26:51;;;;;;;8.30;5.13;;;23.60;68.80;;;;;;5030428;28;20037;-67
2022/09/04 08:29:36;;;;;;;11.02;5.10;;;23.60;68.80;;;;;;5033147;28;20018;-68
2022/09/04 08:32:07;;;;;;;;;;;23.60;67.10;;;;;;5033511;28;20025;-67
2022/09/04 08:34:33;;;;;;;5.53;4.28;;;23.60;68.30;;;;;;5030739;28;20329;-67
2022/09/04 08:37:30;;;;;;;5.50;3.90;;;23.60;65.50;;;;;;5033888;28;20024;-66
2022/09/04 08:40:24;;;;;;;4.45;3.70;;;23.50;65.00;;;;;;5030965;28;20478;-68
2022/09/04 08:43:07;;;;;;;4.35;3.42;;;23.40;64.00;;;;;;5032702;28;20056;-68
2022/09/04 08:45:52;;;;;;;3.58;3.28;;;23.30;64.70;;;;;;5031767;28;20057;-67
2022/09/04 08:48:31;;;;;;;4.15;3.28;;;23.20;63.90;;;;;;5031860;28;20055;-67
2022/09/04 08:51:27;;;;;;;4.32;3.47;;;23.10;64.70;;;;;;5013900;28;20025;-67
2022/09/04 08:54:08;;;;;;;5.05;3.65;;;23.10;64.90;;;;;;5031266;28;20057;-67
2022/09/04 08:56:53;;;;;;;5.35;4.45;;;23.10;64.80;;;;;;5033080;28;20628;-67
2022/09/04 08:59:37;;;;;;;7.90;5.30;;;23.10;65.60;;;;;;5033443;28;20044;-67
2022/09/04 09:02:29;;;;;;;;;;;23.10;65.80;;;;;;5031531;28;20480;-67
2022/09/04 09:05:21;;;;;;;3.97;3.58;;;23.20;67.00;;;;;;5029933;28;20704;-66
2022/09/04 09:07:59;;;;;;;3.97;3.38;;;23.40;65.30;;;;;;5013138;28;20479;-68
2022/09/04 09:10:43;;;;;;;3.63;3.17;;;23.50;66.80;;;;;;5031600;28;20100;-67
2022/09/04 09:13:28;;;;;;;5.95;3.90;;;23.60;67.30;;;;;;5030957;28;20063;-65
2022/09/04 09:15:56;;;;;;;4.43;3.53;;;23.70;66.80;;;;;;5032018;28;20453;-67
2022/09/04 09:19:03;;;;;;;5.97;4.70;;;23.80;66.30;;;;;;5031549;28;20130;-65
2022/09/04 09:21:43;;;;;;;6.90;5.43;;;23.90;65.20;;;;;;5031516;28;20083;-65
2022/09/04 09:24:41;;;;;;;6.57;5.40;;;24.00;65.40;;;;;;5031443;28;20029;-65
2022/09/04 09:27:10;;;;;;;4.40;3.90;;;24.10;65.70;;;;;;5031090;28;20021;-67
2022/09/04 09:29:42;;;;;;;4.72;4.25;;;24.20;66.00;;;;;;5029750;28;20072;-67
2022/09/04 09:32:14;;;;;;;7.47;4.80;;;24.20;66.80;;;;;;5032599;28;20014;-66
2022/09/04 09:35:07;;;;;;;5.00;4.28;;;24.30;63.50;;;;;;5033026;28;20029;-65
2022/09/04 09:38:23;;;;;;;5.75;4.38;;;24.40;63.70;;;;;;5030528;28;20100;-67
2022/09/04 09:41:07;;;;;;;6.18;4.35;;;24.50;63.90;;;;;;5032454;28;20028;-65
2022/09/04 09:43:52;;;;;;;5.13;3.83;;;24.50;64.50;;;;;;5026963;28;20045;-66
2022/09/04 09:46:37;;;;;;;5.70;3.80;;;24.50;63.80;;;;;;5030544;28;20029;-65
2022/09/04 09:49:40;;;;;;;4.40;3.38;;;24.50;62.70;;;;;;5031435;28;20048;-65
2022/09/04 09:52:27;;;;;;;4.13;3.47;;;24.40;63.20;;;;;;5030038;28;20041;-66
2022/09/04 09:55:11;;;;;;;3.13;2.60;;;24.40;62.60;;;;;;5030300;28;20503;-67
2022/09/04 09:57:43;;;;;;;3.38;2.42;;;24.30;62.40;;;;;;5031640;28;20053;-68
2022/09/04 10:00:15;;;;;;;3.85;2.47;;;24.10;60.70;;;;;;5031229;28;20105;-65
2022/09/04 10:03:02;;;;;;;2.67;2.38;;;24.10;61.30;;;;;;5030772;28;20029;-66
2022/09/04 10:05:40;;;;;;;3.25;2.80;;;24.00;61.70;;;;;;5031452;28;20032;-66
2022/09/04 10:08:09;;;;;;;2.83;2.17;;;23.80;61.50;;;;;;5032392;28;20439;-65
2022/09/04 10:10:44;;;;;;;4.28;2.15;;;23.80;61.40;;;;;;5032447;28;20053;-66
2022/09/04 10:13:48;;;;;;;3.35;2.78;;;23.70;62.20;;;;;;5032203;28;20021;-67
2022/09/04 10:17:07;;;;;;;3.33;2.58;;;23.60;62.50;;;;;;5031670;28;20156;-65
2022/09/04 10:19:45;;;;;;;5.38;3.00;;;23.60;63.50;;;;;;4954746;28;20035;-65
2022/09/04 10:22:20;;;;;;;5.10;3.25;;;23.60;61.60;;;;;;5029917;28;20051;-65
2022/09/04 10:25:29;;;;;;;3.75;2.63;;;23.60;62.50;;;;;;5029410;28;20022;-66
2022/09/04 10:28:39;;;;;;;4.68;4.15;;;23.60;63.60;;;;;;4977612;28;20153;-65
2022/09/04 10:31:32;;;;;;;5.82;4.18;;;23.70;63.30;;;;;;5003727;28;20419;-67
2022/09/04 10:34:37;;;;;;;7.15;4.80;;;23.70;62.70;;;;;;5030461;28;20013;-66
2022/09/04 10:37:20;;;;;;;4.30;3.40;;;23.80;62.60;;;;;;5029448;28;20375;-65
2022/09/04 10:43:24;;;;;;;4.28;3.58;;;23.90;62.60;;;;;;5031288;28;20091;-65
2022/09/04 10:46:34;;;;;;;4.68;4.07;;;23.90;61.50;;;;;;5030759;28;20033;-65
2022/09/04 10:49:02;;;;;;;4.60;3.90;;;24.00;60.60;;;;;;4970097;28;20026;-66
2022/09/04 10:52:03;;;;;;;6.72;4.50;;;24.00;59.20;;;;;;4969972;28;20094;-66
2022/09/04 10:54:40;;;;;;;6.55;5.15;;;24.00;60.40;;;;;;5014483;28;20057;-65
2022/09/04 10:57:27;;;;;;;6.28;5.05;;;24.00;60.90;;;;;;5031026;28;20089;-67
2022/09/04 10:59:59;;;;;;;10.93;6.47;;;24.10;60.80;;;;;;5028999;28;20040;-66
2022/09/04 11:02:43;;;;;;;7.60;4.20;;;24.10;60.70;;;;;;5030870;28;20018;-65
2022/09/04 11:05:46;;;;;;;5.63;3.45;;;24.10;59.40;;;;;;5028024;28;20499;-65
2022/09/04 11:08:40;;;;;;;4.85;3.58;;;24.20;59.90;;;;;;5014215;28;20065;-67
2022/09/04 11:11:18;;;;;;;4.10;3.70;;;24.20;60.60;;;;;;5028241;28;20072;-64
2022/09/04 11:14:30;;;;;;;5.43;3.95;;;24.20;59.30;;;;;;5031676;28;20021;-64
2022/09/04 11:17:24;;;;;;;4.63;3.85;;;24.20;58.90;;;;;;5021678;28;20037;-65
2022/09/04 11:20:15;;;;;;;4.35;3.88;;;24.20;58.90;;;;;;5025010;28;20399;-65
2022/09/04 11:22:59;;;;;;;5.32;4.50;;;24.30;59.70;;;;;;5032213;28;20045;-66
2022/09/04 11:25:36;;;;;;;;;;;24.30;58.50;;;;;;5031272;28;20025;-66
2022/09/04 11:28:30;;;;;;;5.72;4.50;;;24.40;59.50;;;;;;5033372;28;20004;-66
2022/09/04 11:31:19;;;;;;;5.20;3.88;;;24.40;58.20;;;;;;5035751;28;20029;-66
2022/09/04 11:34:03;;;;;;;3.47;3.17;;;24.50;58.80;;;;;;5008521;28;20383;-66
2022/09/04 11:36:51;;;;;;;4.82;4.30;;;24.50;59.40;;;;;;5037212;28;20022;-66
2022/09/04 11:39:50;;;;;;;4.75;3.90;;;24.60;59.20;;;;;;5035637;28;20025;-67
2022/09/04 11:42:30;;;;;;;4.10;3.70;;;24.60;58.60;;;;;;5035601;28;20029;-64
2022/09/04 11:45:04;;;;;;;3.83;3.40;;;24.70;58.40;;;;;;5035484;28;20053;-66
2022/09/04 11:47:59;;;;;;;4.15;3.55;;;24.70;57.90;;;;;;5035486;28;20503;-67
2022/09/04 11:50:28;;;;;;;5.22;3.88;;;24.80;57.80;;;;;;5032492;28;20061;-65
2022/09/04 11:53:06;;;;;;;4.18;3.53;;;24.80;57.20;;;;;;5035422;28;20387;-67
2022/09/04 11:55:54;;;;;;;5.32;4.75;;;24.80;57.80;;;;;;5035322;28;20044;-67
2022/09/04 11:58:47;;;;;;;4.18;3.78;;;24.90;58.40;;;;;;5035350;28;20029;-64
2022/09/04 12:01:45;;;;;;;8.90;4.03;;;24.90;58.20;;;;;;5035560;28;20017;-65
2022/09/04 12:04:14;;;;;;;4.60;4.00;;;24.90;57.80;;;;;;5035246;28;20474;-67
2022/09/04 12:06:57;;;;;;;4.97;3.70;;;25.00;58.30;;;;;;5046686;28;20039;-64
2022/09/04 12:09:53;;;;;;;6.40;3.45;;;25.00;57.80;;;;;;5054740;28;20025;-65
2022/09/04 12:12:27;;;;;;;4.82;3.85;;;25.00;58.00;;;;;;5054999;28;20021;-65
2022/09/04 12:15:09;;;;;;;8.18;3.70;;;25.10;57.90;;;;;;5054968;28;20025;-65
2022/09/04 12:17:56;;;;;;;4.75;3.30;;;25.10;57.20;;;;;;5054860;28;20024;-65
2022/09/04 12:20:22;;;;;;;8.30;3.80;;;25.10;56.20;;;;;;5054850;28;20558;-65
2022/09/04 12:23:10;;;;;;;6.05;3.67;;;25.20;57.50;;;;;;5054653;28;20251;-65
2022/09/04 12:26:00;;;;;;;7.45;3.10;;;25.20;56.70;;;;;;5054673;28;20429;-65
2022/09/04 12:28:46;;;;;;;5.43;3.20;;;25.30;57.30;;;;;;5054777;28;20429;-66
2022/09/04 12:31:32;;;;;;;3.42;3.00;;;25.40;56.30;;;;;;5054610;28;20024;-66
2022/09/04 12:34:17;;;;;;;3.13;2.80;;;25.40;56.90;;;;;;4992771;28;20030;-64
2022/09/04 12:37:11;;;;;;;3.28;2.92;;;25.60;57.60;;;;;;5036677;28;20036;-65
2022/09/04 12:39:55;;;;;;;;;;;25.60;55.80;;;;;;5053527;28;20021;-67
2022/09/04 12:42:43;;;;;;;4.65;2.75;;;25.70;56.90;;;;;;5054222;28;19909;-64
2022/09/04 12:45:24;;;;;;;3.83;3.08;;;25.80;55.60;;;;;;5054157;28;20056;-66
2022/09/04 12:48:08;;;;;;;3.38;2.83;;;25.90;55.40;;;;;;5054234;28;20056;-67
2022/09/04 12:50:48;;;;;;;3.85;3.40;;;25.90;55.90;;;;;;5054235;28;20025;-65
2022/09/04 12:53:30;;;;;;;3.17;2.88;;;25.90;55.70;;;;;;5043255;28;20041;-65
2022/09/04 12:55:59;;;;;;;4.53;3.35;;;26.00;57.10;;;;;;5032401;28;20426;-65
2022/09/04 12:58:32;;;;;;;3.55;2.97;;;26.00;55.00;;;;;;5033934;28;20493;-66
2022/09/04 13:01:07;;;;;;;3.08;2.50;;;26.10;54.80;;;;;;5034190;28;20052;-65
2022/09/04 13:04:11;;;;;;;3.05;2.75;;;26.10;55.30;;;;;;5033480;28;20029;-65
2022/09/04 13:06:54;;;;;;;4.43;3.20;;;26.20;55.00;;;;;;5033529;28;20026;-67
2022/09/04 13:09:44;;;;;;;4.85;3.45;;;26.20;55.20;;;;;;5033029;28;20064;-66
2022/09/04 13:12:43;;;;;;;3.40;3.10;;;26.30;55.60;;;;;;5031184;28;20502;-65
2022/09/04 13:15:21;;;;;;;3.45;3.10;;;26.30;55.10;;;;;;5030835;28;20025;-66
2022/09/04 13:18:13;;;;;;;4.15;3.05;;;26.40;55.70;;;;;;5030334;28;20025;-64
2022/09/04 13:20:55;;;;;;;3.35;2.97;;;26.40;55.40;;;;;;5008897;28;20033;-65
2022/09/04 13:23:39;;;;;;;6.22;3.47;;;26.40;55.20;;;;;;5028813;28;20052;-64
2022/09/04 13:26:20;;;;;;;;;;;26.50;55.70;;;;;;5032072;28;20026;-66
2022/09/04 13:28:49;;;;;;;4.07;3.42;;;26.50;56.10;;;;;;5030241;28;20440;-65
2022/09/04 13:31:17;;;;;;;7.50;4.75;;;26.60;56.40;;;;;;5029703;28;20026;-67
2022/09/04 13:34:12;;;;;;;5.75;4.43;;;26.60;56.90;;;;;;5031828;28;20387;-64
2022/09/04 13:37:03;;;;;;;3.10;2.40;;;26.70;57.00;;;;;;5032312;28;20021;-67
2022/09/04 13:39:49;;;;;;;2.17;1.80;;;26.80;55.00;;;;;;5031374;28;20694;-66
2022/09/04 13:42:43;;;;;;;2.47;2.03;;;26.90;54.60;;;;;;5029621;28;20021;-67
2022/09/04 13:45:22;;;;;;;2.67;2.05;;;26.90;53.20;;;;;;5031733;28;20013;-65
2022/09/04 13:48:18;;;;;;;2.08;1.88;;;27.00;52.60;;;;;;5031622;28;20025;-66
2022/09/04 13:50:51;;;;;;;3.15;1.90;;;27.10;52.50;;;;;;5031553;28;20402;-65
2022/09/04 13:53:21;;;;;;;3.85;3.00;;;27.30;54.70;;;;;;5032427;28;20022;-65
2022/09/04 13:56:01;;;;;;;3.67;2.85;;;27.50;54.00;;;;;;5030076;28;20548;-66
2022/09/04 13:58:37;;;;;;;3.95;2.75;;;27.90;54.50;;;;;;5030892;28;20036;-65
2022/09/04 14:01:08;;;;;;;3.55;2.58;;;28.30;56.10;;;;;;5029338;28;20424;-65
2022/09/04 14:03:37;;;;;;;6.25;2.78;;;28.70;56.40;;;;;;5029960;28;20026;-66
2022/09/04 14:06:07;;;;;;;3.85;2.17;;;29.10;55.00;;;;;;5034429;28;20033;-67
2022/09/04 14:08:38;;;;;;;2.13;1.92;;;29.50;49.50;;;;;;5016290;28;20424;-68
2022/09/04 14:11:14;;;;;;;2.53;2.20;;;29.70;47.80;;;;;;5030292;28;20028;-68
2022/09/04 14:14:00;;;;;;;2.97;2.67;;;29.90;49.50;;;;;;5029230;28;20045;-68
2022/09/04 14:16:26;;;;;;;2.75;2.42;;;29.90;49.50;;;;;;5032752;28;20021;-68
2022/09/04 14:19:04;;;;;;;3.00;2.40;;;30.00;50.70;;;;;;5032347;28;20045;-68
2022/09/04 14:22:01;;;;;;;2.67;2.10;;;30.00;50.70;;;;;;5029705;28;20029;-68